Bluefields, Nicaragua
Current Conditions -  °F | °C
As of 11:00 AM on Thursday 27 Nov 2014 (Local Time) from MROC Reporting Station
Broken Clouds Broken Clouds  
Wind Chill: 81°   Ceiling: 25000
Heat Index: 81°   Visibility: 6mi
Dew Point: 61°   Wind: 18mph
Humidity: 51%   Direction: 60°ENE
Pressure: 30"   Gusts: 30mph
Location:  12.01°N, 83.77°W
Report Text: MROC 271700Z 06016G26KT 9999 FEW030 SCT120 BKN250 27/16 A3000 NOSIG
Loading
Personal Weather Stations






























Interactive Weather Map New forecast layout! Learn more

10-Day Weather Forecast

Advertisements
Track Severe Weather on mobile